Time;durP1;ratioP1;P1;durP2;ratioP2;P2;SDS_P1;SDS_P2;PMS_P1;PMS_P2;Temp;Humidity;BMP_temperature;BMP_pressure;BME280_temperature;BME280_humidity;BME280_pressure;Samples;Min_cycle;Max_cycle;Signal;HPM_P1;HPM_P2
2022/11/25 00:01:22;;;;;;;78.28;42.70;;;;;;;10.33;66.58;100854.69;4986089;28;121097;-75
2022/11/25 00:03:49;;;;;;;75.20;41.72;;;;;;;10.30;66.37;100852.84;4976684;28;119575;-76
2022/11/25 00:06:26;;;;;;;84.35;43.47;;;;;;;10.24;66.39;100846.38;4992384;28;119766;-76
2022/11/25 00:08:58;;;;;;;80.28;42.60;;;;;;;10.20;66.15;100847.69;4989163;28;119203;-76
2022/11/25 00:11:24;;;;;;;73.17;39.80;;;;;;;10.16;66.35;100840.34;4989077;28;120253;-76
2022/11/25 00:13:50;;;;;;;76.25;41.95;;;;;;;10.16;66.14;100847.78;4987786;28;119884;-75
2022/11/25 00:16:18;;;;;;;83.90;43.87;;;;;;;10.13;66.55;100848.69;4988848;28;119679;-75
2022/11/25 00:18:48;;;;;;;77.47;42.33;;;;;;;10.11;65.95;100851.09;4984770;28;119594;-75
2022/11/25 00:21:17;;;;;;;79.25;42.67;;;;;;;10.06;66.26;100844.22;4986211;28;121342;-75
2022/11/25 00:23:52;;;;;;;81.57;44.42;;;;;;;10.04;65.97;100854.09;4986917;28;119543;-75
2022/11/25 00:26:19;;;;;;;83.45;45.50;;;;;;;10.00;66.52;100845.97;4994419;28;119368;-76
2022/11/25 00:28:46;;;;;;;82.03;43.33;;;;;;;9.95;66.12;100826.59;4973603;28;119496;-76
2022/11/25 00:31:17;;;;;;;79.95;43.25;;;;;;;9.90;65.61;100824.41;4974126;28;119540;-75
2022/11/25 00:33:44;;;;;;;71.37;41.63;;;;;;;9.85;65.49;100829.22;4946701;28;119730;-76
2022/11/25 00:36:14;;;;;;;77.88;41.83;;;;;;;9.82;65.65;100835.59;4981364;28;119613;-75
2022/11/25 00:38:40;;;;;;;76.03;41.35;;;;;;;9.76;65.95;100836.59;4977429;28;120585;-76
2022/11/25 00:46:39;;;;;;;89.50;47.22;;;;;;;9.72;66.55;100841.44;4953349;28;120315;-76
2022/11/25 00:49:06;;;;;;;88.35;46.42;;;;;;;9.70;67.12;100844.63;4960967;28;122063;-76
2022/11/25 00:51:32;;;;;;;90.70;47.10;;;;;;;9.69;66.75;100842.28;4992125;28;119448;-76
2022/11/25 00:53:57;;;;;;;92.18;47.00;;;;;;;9.63;66.53;100831.13;4985792;28;119240;-76
2022/11/25 00:56:23;;;;;;;85.85;45.63;;;;;;;9.64;66.51;100832.66;4973369;28;119502;-76
2022/11/25 00:59:07;;;;;;;83.95;45.63;;;;;;;9.62;66.70;100826.84;4972794;28;121140;-76
2022/11/25 01:01:33;;;;;;;84.80;45.88;;;;;;;9.54;66.63;100814.59;4990872;28;119847;-75
2022/11/25 01:04:01;;;;;;;85.00;46.67;;;;;;;9.60;66.71;100828.50;4969195;28;119613;-76
2022/11/25 01:06:32;;;;;;;92.30;48.00;;;;;;;9.58;66.99;100823.47;4962299;28;119736;-76
2022/11/25 01:08:59;;;;;;;88.60;45.25;;;;;;;9.57;66.63;100821.94;4959540;28;119410;-76
2022/11/25 01:11:25;;;;;;;84.83;45.20;;;;;;;9.55;66.93;100821.63;4988609;28;119438;-75
2022/11/25 01:13:53;;;;;;;98.07;48.90;;;;;;;9.57;67.02;100819.19;4986753;28;120029;-75
2022/11/25 01:16:21;;;;;;;94.87;48.97;;;;;;;9.58;67.31;100825.44;4968933;28;119495;-76
2022/11/25 01:18:49;;;;;;;89.67;46.53;;;;;;;9.58;67.19;100826.19;4978478;28;120559;-75
2022/11/25 01:21:31;;;;;;;89.88;47.75;;;;;;;9.60;67.52;100832.00;4973396;28;120270;-75
2022/11/25 01:23:59;;;;;;;94.80;47.90;;;;;;;9.60;67.53;100821.06;4962453;28;119485;-75
2022/11/25 01:26:25;;;;;;;100.50;49.95;;;;;;;9.59;67.92;100813.28;4946698;28;119847;-75
2022/11/25 01:28:56;;;;;;;98.50;49.00;;;;;;;9.63;67.42;100820.16;4980761;28;119757;-75
2022/11/25 01:31:33;;;;;;;98.00;48.85;;;;;;;9.60;67.91;100806.59;4973176;28;119211;-76
2022/11/25 01:34:12;;;;;;;95.70;49.20;;;;;;;9.65;68.09;100811.50;4986752;28;119894;-76
2022/11/25 01:36:38;;;;;;;89.27;47.07;;;;;;;9.60;68.19;100804.63;4984728;27;119920;-75
2022/11/25 01:39:04;;;;;;;87.93;46.97;;;;;;;9.68;67.87;100808.66;4992085;28;119382;-76
2022/11/25 01:41:31;;;;;;;92.63;47.10;;;;;;;9.69;68.07;100814.91;4981426;28;120134;-76
2022/11/25 01:44:20;;;;;;;90.90;47.35;;;;;;;9.69;67.60;100801.19;4987712;28;119462;-75
2022/11/25 01:47:02;;;;;;;82.53;46.13;;;;;;;9.69;68.36;100804.69;4967530;28;119894;-76
2022/11/25 01:49:47;;;;;;;87.45;46.75;;;;;;;9.69;68.62;100804.69;4986730;28;119209;-75
2022/11/25 01:52:22;;;;;;;84.95;44.78;;;;;;;9.72;67.99;100809.31;4967787;28;119498;-75
2022/11/25 01:55:08;;;;;;;82.90;45.30;;;;;;;9.74;68.26;100812.41;4994253;28;120242;-76
2022/11/25 01:57:42;;;;;;;93.97;48.72;;;;;;;9.66;67.86;100805.59;4970421;28;119763;-75
2022/11/25 02:00:09;;;;;;;94.28;47.85;;;;;;;9.71;68.33;100807.03;4974360;28;119510;-76
2022/11/25 02:02:46;;;;;;;91.13;48.17;;;;;;;9.66;67.92;100805.59;4989995;28;120276;-76
2022/11/25 02:05:15;;;;;;;89.82;48.28;;;;;;;9.73;68.37;100804.63;4985704;28;119355;-75
2022/11/25 02:07:44;;;;;;;92.50;49.20;;;;;;;9.73;68.06;100796.41;4990377;28;119799;-75
2022/11/25 02:10:14;;;;;;;90.20;48.10;;;;;;;9.76;68.22;100799.00;4969528;28;119912;-76
2022/11/25 02:12:44;;;;;;;95.70;49.13;;;;;;;9.80;68.08;100798.91;4972498;28;119506;-76
2022/11/25 02:15:14;;;;;;;92.45;48.72;;;;;;;9.83;68.46;100807.00;4970808;28;119306;-75
2022/11/25 02:17:44;;;;;;;90.38;50.05;;;;;;;9.88;68.44;100804.91;4975686;28;119358;-76
2022/11/25 02:20:19;;;;;;;83.38;47.28;;;;;;;9.88;68.37;100802.91;4970795;28;119658;-76
2022/11/25 02:23:13;;;;;;;93.07;48.53;;;;;;;9.93;68.33;100802.34;4937915;28;119778;-75
2022/11/25 02:25:43;;;;;;;82.90;47.08;;;;;;;9.92;68.33;100800.06;4959082;28;119633;-76
2022/11/25 02:28:16;;;;;;;81.90;47.53;;;;;;;9.94;67.99;100809.41;4971823;28;119388;-76
2022/11/25 02:30:42;;;;;;;85.50;46.53;;;;;;;9.94;68.16;100797.66;4955124;28;119278;-75
2022/11/25 02:33:08;;;;;;;67.78;42.40;;;;;;;9.94;68.40;100808.63;4972124;28;120105;-75
2022/11/25 02:35:41;;;;;;;70.23;42.33;;;;;;;9.93;68.34;100807.84;4989919;28;119785;-75
2022/11/25 02:38:11;;;;;;;68.03;42.27;;;;;;;9.95;68.61;100810.16;4968529;28;119541;-76
2022/11/25 02:40:44;;;;;;;69.40;40.88;;;;;;;9.94;68.17;100811.38;4976157;28;119277;-75
2022/11/25 02:43:10;;;;;;;63.83;40.13;;;;;;;9.95;67.88;100810.16;4955376;28;120766;-76
2022/11/25 02:45:52;;;;;;;63.30;39.92;;;;;;;9.92;67.82;100811.78;4971607;28;119772;-76
2022/11/25 02:48:19;;;;;;;69.80;41.83;;;;;;;9.93;68.23;100809.81;4954329;28;119587;-76
2022/11/25 02:50:46;;;;;;;71.07;42.10;;;;;;;9.91;68.16;100812.22;4970758;28;119344;-75
2022/11/25 02:53:14;;;;;;;67.90;41.47;;;;;;;9.93;68.31;100816.06;4947258;28;119679;-78
2022/11/25 02:55:40;;;;;;;71.63;42.10;;;;;;;9.88;68.14;100813.88;4972418;28;119776;-77
2022/11/25 02:58:06;;;;;;;71.78;43.88;;;;;;;9.97;68.30;100824.19;4989670;28;119614;-77
2022/11/25 03:00:33;;;;;;;73.82;44.00;;;;;;;10.00;68.10;100821.31;4974901;28;119730;-77
2022/11/25 03:02:59;;;;;;;69.85;43.70;;;;;;;10.03;68.02;100825.91;4975329;28;119461;-77
2022/11/25 03:05:41;;;;;;;78.40;45.63;;;;;;;10.02;68.50;100824.38;4986256;28;119344;-74
2022/11/25 03:08:07;;;;;;;72.22;45.03;;;;;;;10.05;68.14;100818.00;4970522;28;119750;-75
2022/11/25 03:10:36;;;;;;;72.63;44.47;;;;;;;10.08;68.14;100824.56;4970187;28;119774;-74
2022/11/25 03:13:02;;;;;;;76.18;45.85;;;;;;;10.11;68.51;100823.69;4989039;28;119476;-74
2022/11/25 03:15:28;;;;;;;76.30;45.53;;;;;;;10.12;68.10;100819.75;4989405;28;119503;-75
2022/11/25 03:17:54;;;;;;;75.45;45.88;;;;;;;10.09;67.83;100815.16;4970729;28;119965;-74
2022/11/25 03:20:22;;;;;;;75.30;46.50;;;;;;;10.12;67.61;100819.75;4973158;28;119594;-75
2022/11/25 03:22:48;;;;;;;75.80;46.83;;;;;;;10.08;67.80;100811.63;4967644;28;119345;-75
2022/11/25 03:25:20;;;;;;;73.63;46.35;;;;;;;10.13;68.21;100807.56;4976210;28;119929;-74
2022/11/25 03:27:48;;;;;;;73.53;45.97;;;;;;;10.11;67.93;100810.75;4970845;28;119615;-75
2022/11/25 03:30:18;;;;;;;76.20;47.07;;;;;;;10.11;68.12;100801.75;4970844;28;119719;-74
2022/11/25 03:33:11;;;;;;;75.37;47.30;;;;;;;10.15;67.99;100818.84;4971081;28;119260;-77
2022/11/25 03:35:36;;;;;;;71.47;45.57;;;;;;;10.13;68.31;100813.03;4967033;28;119584;-75
2022/11/25 03:38:03;;;;;;;74.15;46.63;;;;;;;10.18;67.61;100817.97;4951442;28;119871;-75
2022/11/25 03:40:33;;;;;;;78.37;46.90;;;;;;;10.13;67.42;100804.81;4968397;28;119651;-74
2022/11/25 03:42:58;;;;;;;77.55;46.38;;;;;;;10.19;67.90;100816.00;4970313;28;119724;-74
2022/11/25 03:45:33;;;;;;;78.88;45.67;;;;;;;10.19;67.58;100811.28;4989630;28;120147;-77
2022/11/25 03:48:03;;;;;;;75.97;46.27;;;;;;;10.18;67.66;100817.97;4966719;28;119451;-77
2022/11/25 03:50:29;;;;;;;81.45;46.05;;;;;;;10.16;67.47;100818.41;4947587;28;121296;-76
2022/11/25 03:52:55;;;;;;;76.03;45.17;;;;;;;10.15;67.82;100825.09;4966631;28;119791;-77
2022/11/25 03:55:21;;;;;;;75.93;45.40;;;;;;;10.16;67.83;100823.88;4966216;28;119404;-76
2022/11/25 03:57:48;;;;;;;79.70;45.83;;;;;;;10.19;67.64;100833.22;4966924;28;119936;-76
2022/11/25 04:00:14;;;;;;;76.70;45.97;;;;;;;10.22;67.51;100840.59;4965711;28;120067;-76
2022/11/25 04:02:53;;;;;;;78.88;45.88;;;;;;;10.22;67.49;100829.63;4968998;28;119485;-77
2022/11/25 04:05:19;;;;;;;77.13;44.80;;;;;;;10.21;67.17;100828.09;4992886;28;119464;-76
2022/11/25 04:07:45;;;;;;;74.85;46.63;;;;;;;10.21;67.38;100825.34;4959064;28;119703;-76
2022/11/25 04:10:11;;;;;;;76.82;45.70;;;;;;;10.22;67.38;100826.88;4985472;28;119517;-76
2022/11/25 04:12:46;;;;;;;76.07;44.70;;;;;;;10.16;67.34;100825.84;4962101;28;119467;-76
2022/11/25 04:15:16;;;;;;;80.38;44.92;;;;;;;10.19;67.30;100835.97;4963572;28;119376;-76
2022/11/25 04:17:42;;;;;;;74.10;44.55;;;;;;;10.11;67.33;100834.66;4972406;28;120034;-76
2022/11/25 04:20:09;;;;;;;74.68;44.38;;;;;;;10.12;67.26;100830.69;4982405;28;119343;-77
2022/11/25 04:22:35;;;;;;;79.10;44.87;;;;;;;10.06;67.22;100824.25;4974464;28;119885;-76
2022/11/25 04:25:03;;;;;;;75.18;44.40;;;;;;;10.08;67.19;100827.31;4973740;28;120268;-76
2022/11/25 04:27:29;;;;;;;75.28;44.42;;;;;;;10.04;67.18;100829.41;4967119;28;119439;-76
2022/11/25 04:29:56;;;;;;;71.78;42.53;;;;;;;10.02;67.29;100818.13;4971086;28;119382;-76
2022/11/25 04:32:21;;;;;;;71.93;42.70;;;;;;;10.04;67.52;100815.72;4965696;28;119561;-77
2022/11/25 04:34:48;;;;;;;72.05;42.95;;;;;;;10.02;66.95;100821.63;4950678;28;119516;-76
2022/11/25 04:37:14;;;;;;;69.88;42.30;;;;;;;9.99;67.55;100808.81;4973502;28;119684;-77
2022/11/25 04:39:46;;;;;;;72.28;42.63;;;;;;;10.01;67.34;100809.16;4960153;28;119866;-76
2022/11/25 04:42:36;;;;;;;74.17;42.33;;;;;;;9.99;67.16;100805.31;4992324;28;119301;-77
2022/11/25 04:45:16;;;;;;;69.75;42.33;;;;;;;9.95;67.18;100810.16;4978635;28;119220;-76
2022/11/25 04:47:44;;;;;;;72.88;42.50;;;;;;;9.94;66.85;100805.88;4962198;28;119774;-77
2022/11/25 04:50:17;;;;;;;70.00;41.50;;;;;;;9.95;67.27;100799.97;4959185;28;119659;-76
2022/11/25 04:52:52;;;;;;;70.43;40.60;;;;;;;9.92;66.95;100794.56;4970990;28;119504;-77
2022/11/25 04:55:18;;;;;;;70.97;41.70;;;;;;;9.83;67.04;100787.81;4974177;28;119413;-77
2022/11/25 04:57:44;;;;;;;76.63;42.50;;;;;;;9.84;67.37;100800.31;4973166;28;119222;-77
2022/11/25 05:00:12;;;;;;;72.93;41.87;;;;;;;9.81;67.40;100790.22;4974141;28;119794;-76
2022/11/25 05:02:38;;;;;;;74.03;41.20;;;;;;;9.80;67.68;100802.41;4971398;28;119944;-77
2022/11/25 05:05:10;;;;;;;72.70;41.63;;;;;;;9.77;67.01;100800.53;4973414;28;119485;-76
2022/11/25 05:07:37;;;;;;;72.93;41.43;;;;;;;9.78;67.15;100807.56;4973593;28;119473;-77
2022/11/25 05:10:04;;;;;;;72.72;42.67;;;;;;;9.77;66.94;100810.75;4991259;28;119338;-76
2022/11/25 05:12:37;;;;;;;71.80;40.80;;;;;;;9.73;67.41;100805.38;4977356;28;119547;-76
2022/11/25 05:15:07;;;;;;;72.70;41.40;;;;;;;9.71;67.69;100805.06;4954380;28;119430;-74
2022/11/25 05:17:37;;;;;;;71.07;39.78;;;;;;;9.72;67.54;100808.56;4962809;28;120333;-77
2022/11/25 05:20:06;;;;;;;72.20;39.60;;;;;;;9.71;67.21;100807.78;4978252;28;119815;-77
2022/11/25 05:22:34;;;;;;;73.18;40.65;;;;;;;9.66;67.05;100805.59;4991478;28;119253;-77
2022/11/25 05:25:00;;;;;;;69.38;39.40;;;;;;;9.68;67.29;100800.44;4972814;28;119806;-76
2022/11/25 05:27:27;;;;;;;71.17;39.30;;;;;;;9.66;67.23;100793.88;4991781;28;119225;-77
2022/11/25 05:29:56;;;;;;;71.20;39.22;;;;;;;9.64;67.23;100799.78;4971203;28;119408;-77
2022/11/25 05:32:22;;;;;;;70.18;39.45;;;;;;;9.63;67.58;100800.22;4971962;28;119894;-76
2022/11/25 05:34:48;;;;;;;70.88;39.95;;;;;;;9.61;67.47;100797.94;4965242;28;119588;-77
2022/11/25 05:37:14;;;;;;;70.90;40.13;;;;;;;9.63;67.03;100811.94;4972530;28;119767;-76
2022/11/25 05:39:48;;;;;;;68.05;39.38;;;;;;;9.58;67.50;100807.03;4971852;28;119357;-76
2022/11/25 05:42:43;;;;;;;72.30;39.80;;;;;;;9.61;67.60;100814.38;4966829;28;119935;-77
2022/11/25 05:45:10;;;;;;;75.00;39.47;;;;;;;9.60;67.51;100817.56;4964687;28;120569;-76
2022/11/25 05:47:35;;;;;;;68.78;39.00;;;;;;;9.64;68.07;100818.97;4963079;28;119855;-75
2022/11/25 05:50:03;;;;;;;68.33;38.67;;;;;;;9.69;68.09;100823.88;4955247;28;119886;-75
2022/11/25 05:52:29;;;;;;;66.97;38.50;;;;;;;9.75;68.19;100818.63;4950865;28;119863;-75
2022/11/25 05:55:01;;;;;;;67.18;38.70;;;;;;;9.82;68.20;100823.88;4967248;28;120045;-75
2022/11/25 05:57:28;;;;;;;69.07;38.88;;;;;;;9.85;67.92;100825.72;4957196;28;121148;-75
2022/11/25 05:59:58;;;;;;;65.53;38.47;;;;;;;9.89;67.76;100831.09;4964145;28;119461;-75
2022/11/25 06:02:48;;;;;;;64.30;37.40;;;;;;;9.90;67.87;100827.13;4948880;28;120665;-75
2022/11/25 06:05:13;;;;;;;59.60;36.38;;;;;;;9.99;67.37;100838.22;4967842;28;119495;-75
2022/11/25 06:07:39;;;;;;;57.85;35.97;;;;;;;10.00;67.05;100845.97;4987715;28;119352;-75
2022/11/25 06:10:06;;;;;;;58.67;35.70;;;;;;;10.04;67.64;100837.63;4972205;28;119466;-75
2022/11/25 06:12:34;;;;;;;60.33;36.70;;;;;;;10.07;67.04;100845.75;4949652;28;119723;-76
2022/11/25 06:15:00;;;;;;;62.15;36.90;;;;;;;10.04;66.56;100840.38;4982190;28;119507;-75
2022/11/25 06:17:26;;;;;;;62.08;37.58;;;;;;;10.02;66.73;100831.84;4973069;28;119637;-75
2022/11/25 06:20:02;;;;;;;62.17;36.85;;;;;;;10.02;66.99;100831.84;4974761;28;120071;-75
2022/11/25 06:22:29;;;;;;;60.80;36.90;;;;;;;10.06;66.96;100843.44;4968750;28;119507;-75
2022/11/25 06:24:54;;;;;;;57.15;35.95;;;;;;;10.07;67.11;100844.97;4993008;28;119328;-76
2022/11/25 06:27:23;;;;;;;61.13;36.93;;;;;;;10.08;67.28;100850.00;4960914;28;119672;-75
2022/11/25 06:29:49;;;;;;;60.95;36.72;;;;;;;10.06;66.81;100843.44;4977386;28;119468;-75
2022/11/25 06:32:15;;;;;;;57.63;35.58;;;;;;;10.10;66.97;100847.59;4969728;28;119686;-75
2022/11/25 06:34:44;;;;;;;57.80;34.73;;;;;;;10.13;66.86;100852.19;4949424;28;119513;-75
2022/11/25 06:37:25;;;;;;;56.28;35.03;;;;;;;10.15;66.86;100857.22;4971604;28;119598;-75
2022/11/25 06:39:51;;;;;;;56.22;34.47;;;;;;;10.15;66.49;100854.47;4969900;28;121937;-75
2022/11/25 06:42:17;;;;;;;54.67;34.17;;;;;;;10.14;66.46;100844.72;4991005;28;119471;-75
2022/11/25 06:45:09;;;;;;;54.42;33.33;;;;;;;10.14;66.73;100845.50;4985023;28;119998;-75
2022/11/25 06:47:35;;;;;;;52.88;34.00;;;;;;;10.10;66.67;100844.84;4967499;28;119263;-75
2022/11/25 06:50:00;;;;;;;55.80;34.07;;;;;;;10.14;66.64;100858.44;4983672;28;119544;-75
2022/11/25 06:52:29;;;;;;;54.60;32.88;;;;;;;10.12;66.83;100847.16;4981054;28;119635;-75
2022/11/25 06:54:55;;;;;;;51.47;32.53;;;;;;;10.15;66.85;100846.25;4984169;28;119612;-75
2022/11/25 06:57:22;;;;;;;52.63;32.70;;;;;;;10.18;67.24;100845.41;4994005;28;119682;-75
2022/11/25 06:59:48;;;;;;;49.83;31.07;;;;;;;10.22;66.77;100848.03;4983289;28;119944;-75
2022/11/25 07:02:21;;;;;;;52.90;31.02;;;;;;;10.26;67.03;100849.44;4978871;28;120321;-75
2022/11/25 07:05:08;;;;;;;45.90;28.52;;;;;;;10.29;66.64;100845.81;4991409;28;119329;-75
2022/11/25 07:07:33;;;;;;;47.03;29.83;;;;;;;10.32;66.69;100846.91;4970988;28;121300;-75
2022/11/25 07:09:59;;;;;;;48.30;28.10;;;;;;;10.33;66.92;100845.69;4973022;28;120222;-75
2022/11/25 07:12:25;;;;;;;44.03;27.27;;;;;;;10.32;66.78;100844.91;4989105;28;120014;-75
2022/11/25 07:14:51;;;;;;;45.45;27.75;;;;;;;10.37;66.89;100838.88;4988708;28;119743;-75
2022/11/25 07:17:16;;;;;;;47.42;27.55;;;;;;;10.37;66.57;100836.13;4986432;28;119694;-75
2022/11/25 07:19:44;;;;;;;46.60;28.52;;;;;;;10.41;66.81;100836.03;4996305;28;119773;-75
2022/11/25 07:22:09;;;;;;;39.45;26.45;;;;;;;10.37;66.38;100825.16;4971694;28;119264;-75
2022/11/25 07:24:35;;;;;;;42.67;27.13;;;;;;;10.46;66.02;100849.16;4988455;28;119546;-75
2022/11/25 07:27:04;;;;;;;39.67;25.67;;;;;;;10.47;66.19;100844.44;4956224;28;120744;-75
2022/11/25 07:29:30;;;;;;;40.27;25.87;;;;;;;10.47;66.23;100855.41;4989526;28;119958;-75
2022/11/25 07:31:56;;;;;;;43.22;25.85;;;;;;;10.51;65.98;100853.31;4966634;28;120114;-75
2022/11/25 07:34:22;;;;;;;40.53;25.48;;;;;;;10.52;65.86;100849.34;4987789;28;120081;-75
2022/11/25 07:36:49;;;;;;;39.47;24.63;;;;;;;10.53;66.07;100856.38;4987255;28;119554;-75
2022/11/25 07:39:21;;;;;;;40.73;25.20;;;;;;;10.48;66.08;100844.00;4985064;28;120059;-75
2022/11/25 07:41:51;;;;;;;41.80;24.48;;;;;;;10.53;65.88;100853.63;4969590;28;119674;-75
2022/11/25 07:44:28;;;;;;;39.20;24.37;;;;;;;10.53;66.17;100853.63;4976890;28;120263;-75
2022/11/25 07:47:03;;;;;;;36.72;23.20;;;;;;;10.58;66.35;100866.75;4954224;28;119596;-75
2022/11/25 07:49:28;;;;;;;39.03;22.77;;;;;;;10.59;65.88;100862.81;4969407;28;119838;-75
2022/11/25 07:51:58;;;;;;;37.73;23.03;;;;;;;10.60;65.94;100864.34;4959583;28;120010;-75
2022/11/25 07:54:24;;;;;;;35.80;22.20;;;;;;;10.64;66.19;100873.19;4977940;28;120129;-75
2022/11/25 07:57:10;;;;;;;33.80;22.13;;;;;;;10.65;66.17;100872.03;4986071;28;119629;-75
2022/11/25 07:59:40;;;;;;;36.87;22.03;;;;;;;10.70;66.07;100874.19;4962186;28;119787;-75
2022/11/25 08:02:08;;;;;;;36.50;22.20;;;;;;;10.73;65.98;100874.06;4964694;28;119337;-75
2022/11/25 08:04:35;;;;;;;33.90;21.85;;;;;;;10.76;65.88;100877.88;4981106;28;119456;-75
2022/11/25 08:07:01;;;;;;;33.97;21.90;;;;;;;10.75;65.50;100879.84;4959531;28;119799;-75
2022/11/25 08:09:27;;;;;;;34.47;22.27;;;;;;;10.77;65.56;100879.41;4981511;28;119850;-75
2022/11/25 08:12:16;;;;;;;34.17;22.13;;;;;;;10.76;65.61;100877.88;4969846;28;119422;-75
2022/11/25 08:14:41;;;;;;;31.77;21.47;;;;;;;10.77;65.58;100873.94;4979801;28;119937;-75
2022/11/25 08:17:07;;;;;;;32.85;20.83;;;;;;;10.78;65.57;100883.69;4986187;28;119730;-75
2022/11/25 08:19:34;;;;;;;32.80;20.50;;;;;;;10.79;65.49;100885.22;4962422;28;120414;-75
2022/11/25 08:22:00;;;;;;;34.90;21.02;;;;;;;10.77;65.39;100885.66;4963699;28;119745;-75
2022/11/25 08:24:25;;;;;;;34.87;21.33;;;;;;;10.76;65.66;100888.84;4982325;28;119313;-75
2022/11/25 08:26:53;;;;;;;32.87;20.60;;;;;;;10.74;65.36;100885.78;4966445;28;119890;-75
2022/11/25 08:29:19;;;;;;;32.65;20.42;;;;;;;10.73;65.70;100893.25;4957805;28;119727;-75
2022/11/25 08:31:45;;;;;;;33.38;20.17;;;;;;;10.72;65.45;100877.25;4989338;28;120119;-75
2022/11/25 08:34:28;;;;;;;33.17;20.08;;;;;;;10.78;65.57;100886.44;4986339;28;119679;-75
2022/11/25 08:36:59;;;;;;;31.45;19.73;;;;;;;10.80;65.58;100896.97;4964387;28;119545;-75
2022/11/25 08:39:25;;;;;;;32.35;19.17;;;;;;;10.83;65.18;100898.81;4985198;28;119793;-75
2022/11/25 08:41:53;;;;;;;33.30;19.48;;;;;;;10.83;65.46;100899.56;4982701;28;119698;-75
2022/11/25 08:44:19;;;;;;;32.35;19.13;;;;;;;10.86;65.73;100897.91;4981526;28;119320;-75
2022/11/25 08:47:09;;;;;;;33.25;19.60;;;;;;;10.85;65.83;100886.16;4909901;28;120211;-75
2022/11/25 08:49:34;;;;;;;34.10;19.20;;;;;;;10.91;65.46;100895.38;4914472;28;119408;-75
2022/11/25 08:52:00;;;;;;;32.87;18.93;;;;;;;10.92;65.39;100896.13;4982429;28;119469;-75
2022/11/25 08:54:29;;;;;;;31.98;19.00;;;;;;;10.92;65.74;100899.66;4992363;28;119872;-76
2022/11/25 08:56:55;;;;;;;31.25;18.88;;;;;;;10.87;65.71;100894.72;4986847;28;119420;-75
2022/11/25 08:59:21;;;;;;;30.98;18.42;;;;;;;10.93;65.61;100894.94;4983693;28;119833;-75
2022/11/25 09:01:47;;;;;;;31.65;18.73;;;;;;;10.94;65.63;100902.72;4966728;28;119610;-76
2022/11/25 09:04:13;;;;;;;34.45;19.23;;;;;;;10.94;65.51;100902.72;4967982;28;121202;-75
2022/11/25 09:06:42;;;;;;;32.25;19.00;;;;;;;10.98;66.30;100906.09;4945632;28;120270;-75
2022/11/25 09:09:07;;;;;;;36.23;19.43;;;;;;;10.96;65.93;100897.53;4984967;28;119909;-76
2022/11/25 09:11:33;;;;;;;34.83;19.23;;;;;;;10.99;65.45;100896.63;4986390;28;120155;-76
2022/11/25 09:13:59;;;;;;;34.45;19.73;;;;;;;11.02;65.86;100906.72;4984453;28;120660;-75
2022/11/25 09:16:25;;;;;;;30.05;18.88;;;;;;;11.01;65.80;100901.69;4990073;28;120328;-75
2022/11/25 09:18:50;;;;;;;32.42;18.48;;;;;;;11.05;65.96;100908.56;4966817;28;121969;-76
2022/11/25 09:21:17;;;;;;;35.33;18.70;;;;;;;11.07;65.78;100914.38;4985782;28;119865;-76
2022/11/25 09:23:43;;;;;;;33.35;19.05;;;;;;;11.10;65.97;100909.19;4984522;28;119961;-76
2022/11/25 09:26:19;;;;;;;30.70;18.53;;;;;;;11.15;65.79;100914.13;4983856;28;121616;-75
2022/11/25 09:28:45;;;;;;;32.42;18.15;;;;;;;11.17;65.67;100919.94;4967166;28;119589;-75
2022/11/25 09:31:11;;;;;;;30.15;17.27;;;;;;;11.16;65.64;100915.66;4967484;28;119429;-75
2022/11/25 09:33:36;;;;;;;27.97;17.10;;;;;;;11.21;65.61;100923.31;4983815;28;119813;-75
2022/11/25 09:36:03;;;;;;;29.40;17.67;;;;;;;11.23;65.83;100931.88;4985105;28;119359;-76
2022/11/25 09:38:31;;;;;;;29.15;16.88;;;;;;;11.24;65.35;100927.91;4970428;28;120067;-76
2022/11/25 09:40:56;;;;;;;27.02;16.55;;;;;;;11.24;65.52;100930.66;4985066;28;120006;-75
2022/11/25 09:46:44;;;;;;;31.73;17.47;;;;;;;11.27;66.13;100936.00;4983709;28;120163;-75
2022/11/25 09:49:33;;;;;;;29.75;16.98;;;;;;;11.29;65.66;100941.06;4983332;28;119669;-75
2022/11/25 09:52:16;;;;;;;28.90;16.77;;;;;;;11.29;65.64;100943.81;4965469;28;119849;-75
2022/11/25 09:55:01;;;;;;;32.35;16.85;;;;;;;11.28;65.68;100945.78;4982549;28;120287;-76
2022/11/25 09:57:45;;;;;;;29.80;17.02;;;;;;;11.29;65.77;100950.06;4967010;28;119456;-75
2022/11/25 10:00:12;;;;;;;31.67;17.30;;;;;;;11.32;65.94;100951.13;4976796;28;119882;-75
2022/11/25 10:03:03;;;;;;;31.17;16.40;;;;;;;11.32;66.11;100948.41;4966210;28;120081;-75
2022/11/25 10:05:35;;;;;;;30.27;16.67;;;;;;;11.35;65.90;100950.22;4966874;28;121463;-75
2022/11/25 10:08:19;;;;;;;28.33;16.93;;;;;;;11.37;65.73;100950.59;4984025;28;119969;-75
2022/11/25 10:10:49;;;;;;;34.10;16.80;;;;;;;11.40;65.55;100951.66;4985670;28;119461;-75
2022/11/25 10:13:53;;;;;;;36.03;16.77;;;;;;;11.41;66.17;100959.44;4983798;28;119728;-75
2022/11/25 10:16:48;;;;;;;31.02;16.60;;;;;;;11.43;65.90;100948.00;4966195;28;119978;-75
2022/11/25 10:19:23;;;;;;;29.05;15.88;;;;;;;11.43;65.81;100953.50;4982713;28;119911;-75
2022/11/25 10:21:50;;;;;;;32.00;16.60;;;;;;;11.41;66.23;100959.44;4983375;28;120162;-75
2022/11/25 10:24:17;;;;;;;29.77;16.50;;;;;;;11.46;66.22;100956.13;4985151;28;119939;-76
2022/11/25 10:26:47;;;;;;;33.75;16.52;;;;;;;11.50;66.13;100956.75;4977807;28;119318;-75
2022/11/25 10:29:13;;;;;;;29.98;15.60;;;;;;;11.50;65.73;100959.50;4960095;28;119765;-75
2022/11/25 10:31:42;;;;;;;31.13;15.97;;;;;;;11.50;65.88;100962.25;4985610;28;119662;-75
2022/11/25 10:34:22;;;;;;;29.48;15.88;;;;;;;11.51;66.09;100961.03;4986219;28;119215;-76
2022/11/25 10:36:51;;;;;;;30.00;15.85;;;;;;;11.45;66.13;100965.56;4986464;28;120410;-75
2022/11/25 10:39:28;;;;;;;30.13;16.15;;;;;;;11.44;65.96;100969.53;4985820;28;119935;-75
2022/11/25 10:41:58;;;;;;;33.90;16.00;;;;;;;11.41;66.25;100967.69;4986804;28;119669;-75
2022/11/25 10:44:29;;;;;;;27.35;16.25;;;;;;;11.47;66.38;100967.88;4982404;28;119507;-76
2022/11/25 10:47:22;;;;;;;30.23;16.77;;;;;;;11.50;66.41;100975.97;4989673;28;120123;-75
2022/11/25 10:50:05;;;;;;;30.83;16.65;;;;;;;11.53;66.75;100971.56;4985087;28;119956;-76
2022/11/25 10:52:55;;;;;;;30.33;16.35;;;;;;;11.53;66.44;100966.81;4987033;28;119872;-76
2022/11/25 10:55:27;;;;;;;31.92;17.08;;;;;;;11.59;66.50;100964.25;4952005;28;119839;-75
2022/11/25 10:57:54;;;;;;;30.60;16.77;;;;;;;11.58;66.57;100962.72;4944946;28;120490;-75
2022/11/25 11:00:34;;;;;;;27.37;17.00;;;;;;;11.68;66.66;100970.59;4963272;28;119793;-76
2022/11/25 11:03:24;;;;;;;33.38;17.65;;;;;;;11.68;66.29;100973.34;4962006;28;119720;-75
2022/11/25 11:05:52;;;;;;;31.83;17.23;;;;;;;11.73;66.86;100971.22;4963949;28;119548;-75
2022/11/25 11:08:25;;;;;;;32.80;17.60;;;;;;;11.81;67.05;100973.25;4947673;28;119755;-75
2022/11/25 11:11:13;;;;;;;34.60;17.08;;;;;;;11.89;66.27;100976.50;4987826;28;119890;-75
2022/11/25 11:13:39;;;;;;;55.97;20.63;;;;;;;11.92;66.38;100970.09;4979574;28;120175;-75
2022/11/25 11:16:20;;;;;;;41.92;18.25;;;;;;;11.96;66.20;100977.00;4953183;28;120312;-75
2022/11/25 11:18:46;;;;;;;31.63;17.52;;;;;;;11.95;65.81;100967.22;4984905;28;120406;-75
2022/11/25 11:21:36;;;;;;;32.25;17.35;;;;;;;11.95;65.73;100969.97;4967213;28;120010;-76
2022/11/25 11:24:24;;;;;;;29.02;17.60;;;;;;;11.94;66.00;100984.94;4953176;28;119908;-76
2022/11/25 11:27:07;;;;;;;30.73;17.98;;;;;;;11.93;65.95;100986.16;4981723;28;121488;-75
2022/11/25 11:29:33;;;;;;;28.77;17.50;;;;;;;11.92;65.87;100989.34;4962304;28;119927;-75